sensor_id;sensor_type;location;lat;lon;timestamp;pressure;altitude;pressure_sealevel;temperature;humidity
36748;BME280;22716;51.556;5.080;2023-07-30T00:02:06;100262.09;;;16.88;100.00
36748;BME280;22716;51.556;5.080;2023-07-30T00:04:36;100262.22;;;16.85;100.00
36748;BME280;22716;51.556;5.080;2023-07-30T00:07:05;100264.19;;;16.82;100.00
36748;BME280;22716;51.556;5.080;2023-07-30T00:09:33;100260.66;;;16.81;100.00
36748;BME280;22716;51.556;5.080;2023-07-30T00:12:03;100265.19;;;16.79;100.00
36748;BME280;22716;51.556;5.080;2023-07-30T00:14:35;100257.56;;;16.71;100.00
36748;BME280;22716;51.556;5.080;2023-07-30T00:17:04;100265.44;;;16.73;100.00
36748;BME280;22716;51.556;5.080;2023-07-30T00:19:33;100269.16;;;16.69;100.00
36748;BME280;22716;51.556;5.080;2023-07-30T00:22:01;100268.38;;;16.67;100.00
36748;BME280;22716;51.556;5.080;2023-07-30T00:24:30;100270.06;;;16.68;100.00
36748;BME280;22716;51.556;5.080;2023-07-30T00:26:59;100270.34;;;16.62;100.00
36748;BME280;22716;51.556;5.080;2023-07-30T00:29:27;100277.28;;;16.64;100.00
36748;BME280;22716;51.556;5.080;2023-07-30T00:31:59;100272.84;;;16.65;100.00
36748;BME280;22716;51.556;5.080;2023-07-30T00:34:27;100276.44;;;16.64;100.00
36748;BME280;22716;51.556;5.080;2023-07-30T00:36:56;100261.84;;;16.55;100.00
36748;BME280;22716;51.556;5.080;2023-07-30T00:39:25;100263.41;;;16.59;100.00
36748;BME280;22716;51.556;5.080;2023-07-30T00:41:53;100269.88;;;16.52;100.00
36748;BME280;22716;51.556;5.080;2023-07-30T00:44:22;100267.22;;;16.52;100.00
36748;BME280;22716;51.556;5.080;2023-07-30T00:46:51;100270.00;;;16.49;100.00
36748;BME280;22716;51.556;5.080;2023-07-30T00:49:23;100270.78;;;16.51;100.00
36748;BME280;22716;51.556;5.080;2023-07-30T00:51:52;100279.72;;;16.49;100.00
36748;BME280;22716;51.556;5.080;2023-07-30T00:54:22;100272.78;;;16.46;100.00
36748;BME280;22716;51.556;5.080;2023-07-30T00:56:52;100276.69;;;16.38;100.00
36748;BME280;22716;51.556;5.080;2023-07-30T00:59:21;100281.03;;;16.39;100.00
36748;BME280;22716;51.556;5.080;2023-07-30T01:01:51;100289.81;;;16.39;100.00
36748;BME280;22716;51.556;5.080;2023-07-30T01:04:20;100296.88;;;16.39;100.00
36748;BME280;22716;51.556;5.080;2023-07-30T01:06:53;100293.47;;;16.37;100.00
36748;BME280;22716;51.556;5.080;2023-07-30T01:09:22;100291.06;;;16.31;100.00
36748;BME280;22716;51.556;5.080;2023-07-30T01:11:53;100297.28;;;16.30;100.00
36748;BME280;22716;51.556;5.080;2023-07-30T01:14:23;100302.56;;;16.30;100.00
36748;BME280;22716;51.556;5.080;2023-07-30T01:16:53;100309.84;;;16.24;100.00
36748;BME280;22716;51.556;5.080;2023-07-30T01:19:22;100302.16;;;16.18;100.00
36748;BME280;22716;51.556;5.080;2023-07-30T01:21:54;100314.38;;;16.21;100.00
36748;BME280;22716;51.556;5.080;2023-07-30T01:24:22;100311.94;;;16.16;100.00
36748;BME280;22716;51.556;5.080;2023-07-30T01:26:55;100310.22;;;16.15;100.00
36748;BME280;22716;51.556;5.080;2023-07-30T01:29:29;100326.94;;;16.16;100.00
36748;BME280;22716;51.556;5.080;2023-07-30T01:32:06;100315.50;;;16.15;100.00
36748;BME280;22716;51.556;5.080;2023-07-30T01:34:37;100314.59;;;16.16;100.00
36748;BME280;22716;51.556;5.080;2023-07-30T01:37:12;100315.63;;;16.12;100.00
36748;BME280;22716;51.556;5.080;2023-07-30T01:39:42;100328.59;;;16.18;100.00
36748;BME280;22716;51.556;5.080;2023-07-30T01:42:12;100320.75;;;16.17;100.00
36748;BME280;22716;51.556;5.080;2023-07-30T01:44:41;100318.94;;;16.17;100.00
36748;BME280;22716;51.556;5.080;2023-07-30T01:47:10;100323.38;;;16.17;100.00
36748;BME280;22716;51.556;5.080;2023-07-30T01:49:38;100327.84;;;16.15;100.00
36748;BME280;22716;51.556;5.080;2023-07-30T01:52:10;100323.25;;;16.20;100.00
36748;BME280;22716;51.556;5.080;2023-07-30T01:54:38;100329.38;;;16.20;100.00
36748;BME280;22716;51.556;5.080;2023-07-30T01:57:08;100325.03;;;16.19;100.00
36748;BME280;22716;51.556;5.080;2023-07-30T01:59:38;100326.69;;;16.22;100.00
36748;BME280;22716;51.556;5.080;2023-07-30T02:02:07;100323.19;;;16.21;100.00
36748;BME280;22716;51.556;5.080;2023-07-30T02:04:36;100317.84;;;16.23;100.00
36748;BME280;22716;51.556;5.080;2023-07-30T02:07:05;100316.03;;;16.23;100.00
36748;BME280;22716;51.556;5.080;2023-07-30T02:09:36;100313.34;;;16.25;100.00
36748;BME280;22716;51.556;5.080;2023-07-30T02:12:07;100309.69;;;16.27;100.00
36748;BME280;22716;51.556;5.080;2023-07-30T02:14:37;100307.06;;;16.27;100.00
36748;BME280;22716;51.556;5.080;2023-07-30T02:17:05;100312.44;;;16.26;100.00
36748;BME280;22716;51.556;5.080;2023-07-30T02:19:34;100301.84;;;16.26;100.00
36748;BME280;22716;51.556;5.080;2023-07-30T02:22:04;100294.97;;;16.22;100.00
36748;BME280;22716;51.556;5.080;2023-07-30T02:24:32;100289.69;;;16.22;100.00
36748;BME280;22716;51.556;5.080;2023-07-30T02:27:05;100301.50;;;16.34;100.00
36748;BME280;22716;51.556;5.080;2023-07-30T02:29:33;100297.09;;;16.34;100.00
36748;BME280;22716;51.556;5.080;2023-07-30T02:32:03;100296.34;;;16.31;100.00
36748;BME280;22716;51.556;5.080;2023-07-30T02:34:31;100294.50;;;16.33;100.00
36748;BME280;22716;51.556;5.080;2023-07-30T02:37:00;100287.44;;;16.33;100.00
36748;BME280;22716;51.556;5.080;2023-07-30T02:39:29;100292.66;;;16.35;100.00
36748;BME280;22716;51.556;5.080;2023-07-30T02:41:57;100288.34;;;16.32;100.00
36748;BME280;22716;51.556;5.080;2023-07-30T02:44:29;100303.28;;;16.33;100.00
36748;BME280;22716;51.556;5.080;2023-07-30T02:46:57;100282.75;;;16.19;100.00
36748;BME280;22716;51.556;5.080;2023-07-30T02:49:26;100299.88;;;16.31;100.00
36748;BME280;22716;51.556;5.080;2023-07-30T02:51:55;100310.31;;;16.34;100.00
36748;BME280;22716;51.556;5.080;2023-07-30T02:54:23;100302.50;;;16.31;100.00
36748;BME280;22716;51.556;5.080;2023-07-30T02:56:52;100300.88;;;16.29;100.00
36748;BME280;22716;51.556;5.080;2023-07-30T02:59:20;100295.50;;;16.30;100.00
36748;BME280;22716;51.556;5.080;2023-07-30T03:01:52;100299.22;;;16.26;100.00
36748;BME280;22716;51.556;5.080;2023-07-30T03:04:21;100301.97;;;16.23;100.00
36748;BME280;22716;51.556;5.080;2023-07-30T03:06:50;100294.84;;;16.25;100.00
36748;BME280;22716;51.556;5.080;2023-07-30T03:09:18;100298.25;;;16.27;100.00
36748;BME280;22716;51.556;5.080;2023-07-30T03:11:47;100303.69;;;16.24;100.00
36748;BME280;22716;51.556;5.080;2023-07-30T03:14:16;100297.66;;;16.20;100.00
36748;BME280;22716;51.556;5.080;2023-07-30T03:16:46;100303.75;;;16.22;100.00
36748;BME280;22716;51.556;5.080;2023-07-30T03:19:17;100301.97;;;16.23;100.00
36748;BME280;22716;51.556;5.080;2023-07-30T03:21:46;100302.81;;;16.23;100.00
36748;BME280;22716;51.556;5.080;2023-07-30T03:24:15;100293.22;;;16.21;100.00
36748;BME280;22716;51.556;5.080;2023-07-30T03:26:44;100301.91;;;16.24;100.00
36748;BME280;22716;51.556;5.080;2023-07-30T03:29:13;100296.69;;;16.23;100.00
36748;BME280;22716;51.556;5.080;2023-07-30T03:31:41;100303.63;;;16.25;100.00
36748;BME280;22716;51.556;5.080;2023-07-30T03:34:10;100306.41;;;16.22;100.00
36748;BME280;22716;51.556;5.080;2023-07-30T03:36:42;100301.13;;;16.22;100.00
36748;BME280;22716;51.556;5.080;2023-07-30T03:39:11;100309.91;;;16.23;100.00
36748;BME280;22716;51.556;5.080;2023-07-30T03:41:39;100307.19;;;16.24;100.00
36748;BME280;22716;51.556;5.080;2023-07-30T03:44:09;100306.28;;;16.25;100.00
36748;BME280;22716;51.556;5.080;2023-07-30T03:46:37;100307.13;;;16.26;100.00
36748;BME280;22716;51.556;5.080;2023-07-30T03:49:06;100308.09;;;16.23;100.00
36748;BME280;22716;51.556;5.080;2023-07-30T03:51:35;100311.59;;;16.24;100.00
36748;BME280;22716;51.556;5.080;2023-07-30T03:54:07;100310.03;;;16.20;100.00
36748;BME280;22716;51.556;5.080;2023-07-30T03:56:36;100300.75;;;16.10;100.00
36748;BME280;22716;51.556;5.080;2023-07-30T03:59:05;100314.59;;;16.16;100.00
36748;BME280;22716;51.556;5.080;2023-07-30T04:01:33;100308.50;;;16.14;100.00
36748;BME280;22716;51.556;5.080;2023-07-30T04:04:02;100310.34;;;16.12;100.00
36748;BME280;22716;51.556;5.080;2023-07-30T04:06:31;100311.06;;;16.16;100.00
36748;BME280;22716;51.556;5.080;2023-07-30T04:09:00;100315.56;;;16.14;100.00
36748;BME280;22716;51.556;5.080;2023-07-30T04:11:31;100315.63;;;16.12;100.00
36748;BME280;22716;51.556;5.080;2023-07-30T04:14:00;100314.09;;;16.07;100.00
36748;BME280;22716;51.556;5.080;2023-07-30T04:16:30;100314.84;;;16.10;100.00
36748;BME280;22716;51.556;5.080;2023-07-30T04:18:59;100320.13;;;16.10;100.00
36748;BME280;22716;51.556;5.080;2023-07-30T04:21:28;100328.06;;;16.10;100.00
36748;BME280;22716;51.556;5.080;2023-07-30T04:23:58;100327.19;;;16.10;100.00
36748;BME280;22716;51.556;5.080;2023-07-30T04:26:27;100324.63;;;16.08;100.00
36748;BME280;22716;51.556;5.080;2023-07-30T04:28:58;100339.38;;;16.14;100.00
36748;BME280;22716;51.556;5.080;2023-07-30T04:31:27;100322.63;;;16.13;100.00
36748;BME280;22716;51.556;5.080;2023-07-30T04:33:55;100322.75;;;16.10;100.00
36748;BME280;22716;51.556;5.080;2023-07-30T04:36:24;100326.19;;;16.12;100.00
36748;BME280;22716;51.556;5.080;2023-07-30T04:38:54;100320.16;;;16.09;100.00
36748;BME280;22716;51.556;5.080;2023-07-30T04:41:23;100330.63;;;16.12;100.00
36748;BME280;22716;51.556;5.080;2023-07-30T04:43:51;100326.28;;;16.11;100.00
36748;BME280;22716;51.556;5.080;2023-07-30T04:46:22;100327.94;;;16.13;100.00
36748;BME280;22716;51.556;5.080;2023-07-30T04:48:51;100335.72;;;16.16;100.00
36748;BME280;22716;51.556;5.080;2023-07-30T04:51:20;100337.38;;;16.19;100.00
36748;BME280;22716;51.556;5.080;2023-07-30T04:53:48;100330.25;;;16.21;100.00
36748;BME280;22716;51.556;5.080;2023-07-30T04:56:17;100343.28;;;16.25;100.00
36748;BME280;22716;51.556;5.080;2023-07-30T04:58:46;100344.16;;;16.26;100.00
36748;BME280;22716;51.556;5.080;2023-07-30T05:01:15;100348.50;;;16.27;100.00
36748;BME280;22716;51.556;5.080;2023-07-30T05:03:46;100355.44;;;16.30;100.00
36748;BME280;22716;51.556;5.080;2023-07-30T05:06:15;100351.09;;;16.29;100.00
36748;BME280;22716;51.556;5.080;2023-07-30T05:08:43;100355.44;;;16.30;100.00
36748;BME280;22716;51.556;5.080;2023-07-30T05:11:12;100345.81;;;16.29;100.00
36748;BME280;22716;51.556;5.080;2023-07-30T05:13:41;100349.03;;;16.35;100.00
36748;BME280;22716;51.556;5.080;2023-07-30T05:16:09;100350.63;;;16.39;100.00
36748;BME280;22716;51.556;5.080;2023-07-30T05:18:38;100359.31;;;16.43;100.00
36748;BME280;22716;51.556;5.080;2023-07-30T05:21:09;100347.69;;;16.47;100.00
36748;BME280;22716;51.556;5.080;2023-07-30T05:23:38;100345.81;;;16.49;100.00
36748;BME280;22716;51.556;5.080;2023-07-30T05:26:07;100347.53;;;16.50;100.00
36748;BME280;22716;51.556;5.080;2023-07-30T05:28:36;100348.50;;;16.47;100.00
36748;BME280;22716;51.556;5.080;2023-07-30T05:31:04;100342.31;;;16.48;100.00
36748;BME280;22716;51.556;5.080;2023-07-30T05:33:33;100349.19;;;16.52;100.00
36748;BME280;22716;51.556;5.080;2023-07-30T05:36:02;100344.66;;;16.56;100.00
36748;BME280;22716;51.556;5.080;2023-07-30T05:38:34;100348.25;;;16.55;100.00
36748;BME280;22716;51.556;5.080;2023-07-30T05:41:03;100346.31;;;16.58;100.00
36748;BME280;22716;51.556;5.080;2023-07-30T05:43:31;100355.97;;;16.59;100.00
36748;BME280;22716;51.556;5.080;2023-07-30T05:46:00;100355.78;;;16.64;100.00
36748;BME280;22716;51.556;5.080;2023-07-30T05:48:29;100356.69;;;16.63;100.00
36748;BME280;22716;51.556;5.080;2023-07-30T05:50:58;100361.91;;;16.64;100.00
36748;BME280;22716;51.556;5.080;2023-07-30T05:53:27;100354.66;;;16.69;100.00
36748;BME280;22716;51.556;5.080;2023-07-30T05:55:59;100357.22;;;16.71;100.00
36748;BME280;22716;51.556;5.080;2023-07-30T05:58:28;100357.09;;;16.74;100.00
36748;BME280;22716;51.556;5.080;2023-07-30T06:00:57;100356.22;;;16.73;100.00
36748;BME280;22716;51.556;5.080;2023-07-30T06:03:25;100357.09;;;16.74;100.00
36748;BME280;22716;51.556;5.080;2023-07-30T06:05:54;100361.47;;;16.75;100.00
36748;BME280;22716;51.556;5.080;2023-07-30T06:08:23;100362.19;;;16.78;100.00
36748;BME280;22716;51.556;5.080;2023-07-30T06:10:51;100364.72;;;16.82;100.00
36748;BME280;22716;51.556;5.080;2023-07-30T06:13:23;100369.00;;;16.84;100.00
36748;BME280;22716;51.556;5.080;2023-07-30T06:15:52;100367.16;;;16.86;100.00
36748;BME280;22716;51.556;5.080;2023-07-30T06:18:20;100367.00;;;16.89;100.00
36748;BME280;22716;51.556;5.080;2023-07-30T06:20:49;100358.28;;;16.87;100.00
36748;BME280;22716;51.556;5.080;2023-07-30T06:23:18;100363.38;;;16.92;100.00
36748;BME280;22716;51.556;5.080;2023-07-30T06:25:46;100353.72;;;16.91;100.00
36748;BME280;22716;51.556;5.080;2023-07-30T06:28:15;100368.66;;;16.92;100.00
36748;BME280;22716;51.556;5.080;2023-07-30T06:30:46;100358.16;;;16.90;100.00
36748;BME280;22716;51.556;5.080;2023-07-30T06:33:15;100365.88;;;16.95;100.00
36748;BME280;22716;51.556;5.080;2023-07-30T06:35:44;100363.97;;;16.98;100.00
36748;BME280;22716;51.556;5.080;2023-07-30T06:38:13;100373.50;;;17.02;100.00
36748;BME280;22716;51.556;5.080;2023-07-30T06:40:42;100370.50;;;17.10;100.00
36748;BME280;22716;51.556;5.080;2023-07-30T06:43:11;100374.78;;;17.12;100.00
36748;BME280;22716;51.556;5.080;2023-07-30T06:45:40;100375.53;;;17.16;100.00
36748;BME280;22716;51.556;5.080;2023-07-30T06:48:11;100371.75;;;17.21;100.00
36748;BME280;22716;51.556;5.080;2023-07-30T06:50:41;100363.00;;;17.19;100.00
36748;BME280;22716;51.556;5.080;2023-07-30T06:53:10;100369.22;;;17.18;100.00
36748;BME280;22716;51.556;5.080;2023-07-30T06:55:41;100372.59;;;17.22;100.00
36748;BME280;22716;51.556;5.080;2023-07-30T06:58:10;100373.19;;;17.28;100.00
36748;BME280;22716;51.556;5.080;2023-07-30T07:00:41;100365.13;;;17.31;100.00
36748;BME280;22716;51.556;5.080;2023-07-30T07:03:12;100371.69;;;17.42;100.00
36748;BME280;22716;51.556;5.080;2023-07-30T07:05:41;100375.28;;;17.41;100.00
36748;BME280;22716;51.556;5.080;2023-07-30T07:08:09;100362.38;;;17.33;100.00
36748;BME280;22716;51.556;5.080;2023-07-30T07:10:38;100364.69;;;17.41;100.00
36748;BME280;22716;51.556;5.080;2023-07-30T07:13:07;100367.69;;;17.52;100.00
36748;BME280;22716;51.556;5.080;2023-07-30T07:15:36;100375.41;;;17.58;100.00
36748;BME280;22716;51.556;5.080;2023-07-30T07:18:04;100387.28;;;17.68;100.00
36748;BME280;22716;51.556;5.080;2023-07-30T07:20:36;100373.00;;;17.70;100.00
36748;BME280;22716;51.556;5.080;2023-07-30T07:23:05;100373.25;;;17.66;100.00
36748;BME280;22716;51.556;5.080;2023-07-30T07:25:33;100381.91;;;17.69;100.00
36748;BME280;22716;51.556;5.080;2023-07-30T07:28:03;100371.31;;;17.69;100.00
36748;BME280;22716;51.556;5.080;2023-07-30T07:30:34;100385.28;;;17.73;100.00
36748;BME280;22716;51.556;5.080;2023-07-30T07:33:04;100394.50;;;17.83;100.00
36748;BME280;22716;51.556;5.080;2023-07-30T07:35:40;100401.03;;;17.76;100.00
36748;BME280;22716;51.556;5.080;2023-07-30T07:38:09;100393.94;;;17.76;100.00
36748;BME280;22716;51.556;5.080;2023-07-30T07:40:38;100398.88;;;17.84;100.00
36748;BME280;22716;51.556;5.080;2023-07-30T07:43:08;100388.91;;;17.89;100.00
36748;BME280;22716;51.556;5.080;2023-07-30T07:45:37;100407.97;;;17.97;100.00
36748;BME280;22716;51.556;5.080;2023-07-30T07:48:05;100404.66;;;18.11;100.00
36748;BME280;22716;51.556;5.080;2023-07-30T07:50:34;100408.88;;;18.15;100.00
36748;BME280;22716;51.556;5.080;2023-07-30T07:53:05;100407.50;;;18.25;100.00
36748;BME280;22716;51.556;5.080;2023-07-30T07:55:34;100404.97;;;18.40;100.00
36748;BME280;22716;51.556;5.080;2023-07-30T07:58:03;100411.66;;;18.49;100.00
36748;BME280;22716;51.556;5.080;2023-07-30T08:00:32;100414.22;;;18.51;100.00
36748;BME280;22716;51.556;5.080;2023-07-30T08:03:01;100410.19;;;18.42;100.00
36748;BME280;22716;51.556;5.080;2023-07-30T08:05:29;100403.06;;;18.25;100.00
36748;BME280;22716;51.556;5.080;2023-07-30T08:07:58;100417.25;;;18.24;100.00
36748;BME280;22716;51.556;5.080;2023-07-30T08:10:29;100414.97;;;18.17;100.00
36748;BME280;22716;51.556;5.080;2023-07-30T08:12:58;100411.97;;;18.06;100.00
36748;BME280;22716;51.556;5.080;2023-07-30T08:15:27;100431.31;;;18.08;100.00
36748;BME280;22716;51.556;5.080;2023-07-30T08:17:55;100417.22;;;18.07;100.00
36748;BME280;22716;51.556;5.080;2023-07-30T08:20:24;100417.22;;;18.07;100.00
36748;BME280;22716;51.556;5.080;2023-07-30T08:22:53;100418.13;;;18.06;100.00
36748;BME280;22716;51.556;5.080;2023-07-30T08:25:22;100414.25;;;18.13;100.00
36748;BME280;22716;51.556;5.080;2023-07-30T08:27:53;100417.53;;;18.18;100.00
36748;BME280;22716;51.556;5.080;2023-07-30T08:30:22;100412.97;;;18.22;100.00
36748;BME280;22716;51.556;5.080;2023-07-30T08:32:51;100407.34;;;18.28;100.00
36748;BME280;22716;51.556;5.080;2023-07-30T08:35:20;100404.09;;;18.23;100.00
36748;BME280;22716;51.556;5.080;2023-07-30T08:37:48;100402.78;;;18.31;100.00
36748;BME280;22716;51.556;5.080;2023-07-30T08:40:17;100403.31;;;18.38;100.00
36748;BME280;22716;51.556;5.080;2023-07-30T08:42:46;100406.66;;;18.41;100.00
36748;BME280;22716;51.556;5.080;2023-07-30T08:45:18;100394.19;;;18.43;100.00
36748;BME280;22716;51.556;5.080;2023-07-30T08:47:47;100396.56;;;18.50;100.00
36748;BME280;22716;51.556;5.080;2023-07-30T08:50:16;100406.72;;;18.76;100.00
36748;BME280;22716;51.556;5.080;2023-07-30T08:52:46;100410.94;;;18.97;100.00
36748;BME280;22716;51.556;5.080;2023-07-30T08:55:17;100399.78;;;19.08;100.00
36748;BME280;22716;51.556;5.080;2023-07-30T08:57:47;100401.16;;;19.15;100.00
36748;BME280;22716;51.556;5.080;2023-07-30T09:00:20;100410.28;;;19.26;100.00
36748;BME280;22716;51.556;5.080;2023-07-30T09:02:54;100421.28;;;19.36;100.00
36748;BME280;22716;51.556;5.080;2023-07-30T09:05:23;100420.91;;;19.43;100.00
36748;BME280;22716;51.556;5.080;2023-07-30T09:07:54;100414.06;;;19.55;100.00
36748;BME280;22716;51.556;5.080;2023-07-30T09:10:23;100401.47;;;19.58;100.00
36748;BME280;22716;51.556;5.080;2023-07-30T09:12:53;100402.00;;;19.65;100.00
36748;BME280;22716;51.556;5.080;2023-07-30T09:15:34;100392.56;;;19.60;100.00
36748;BME280;22716;51.556;5.080;2023-07-30T09:18:04;100389.31;;;19.54;100.00
36748;BME280;22716;51.556;5.080;2023-07-30T09:20:37;100397.69;;;19.47;100.00
36748;BME280;22716;51.556;5.080;2023-07-30T09:23:07;100414.81;;;19.41;100.00
36748;BME280;22716;51.556;5.080;2023-07-30T09:25:36;100401.97;;;19.32;100.00
36748;BME280;22716;51.556;5.080;2023-07-30T09:28:07;100408.41;;;19.28;100.00
36748;BME280;22716;51.556;5.080;2023-07-30T09:30:38;100407.72;;;19.25;100.00
36748;BME280;22716;51.556;5.080;2023-07-30T09:33:07;100408.91;;;19.19;100.00
36748;BME280;22716;51.556;5.080;2023-07-30T09:35:36;100415.47;;;19.12;100.00
36748;BME280;22716;51.556;5.080;2023-07-30T09:38:05;100429.16;;;19.05;100.00
36748;BME280;22716;51.556;5.080;2023-07-30T09:40:34;100434.69;;;19.00;100.00
36748;BME280;22716;51.556;5.080;2023-07-30T09:43:05;100442.94;;;18.94;100.00
36748;BME280;22716;51.556;5.080;2023-07-30T09:45:38;100447.66;;;18.89;100.00
36748;BME280;22716;51.556;5.080;2023-07-30T09:48:07;100440.75;;;18.68;100.00
36748;BME280;22716;51.556;5.080;2023-07-30T09:50:36;100443.00;;;18.58;100.00
36748;BME280;22716;51.556;5.080;2023-07-30T09:53:05;100447.22;;;18.43;100.00
36748;BME280;22716;51.556;5.080;2023-07-30T09:55:35;100468.34;;;18.28;100.00
36748;BME280;22716;51.556;5.080;2023-07-30T09:58:04;100450.59;;;17.92;100.00
36748;BME280;22716;51.556;5.080;2023-07-30T10:00:40;100460.09;;;17.59;100.00
36748;BME280;22716;51.556;5.080;2023-07-30T10:03:10;100459.81;;;17.45;100.00
36748;BME280;22716;51.556;5.080;2023-07-30T10:05:41;100467.28;;;17.35;100.00
36748;BME280;22716;51.556;5.080;2023-07-30T10:08:19;100467.91;;;17.22;100.00
36748;BME280;22716;51.556;5.080;2023-07-30T10:10:49;100467.19;;;17.18;100.00
36748;BME280;22716;51.556;5.080;2023-07-30T10:13:19;100477.88;;;17.35;100.00
36748;BME280;22716;51.556;5.080;2023-07-30T10:15:51;100472.97;;;17.47;100.00
36748;BME280;22716;51.556;5.080;2023-07-30T10:18:20;100462.19;;;17.51;100.00
36748;BME280;22716;51.556;5.080;2023-07-30T10:20:52;100477.06;;;17.55;100.00
36748;BME280;22716;51.556;5.080;2023-07-30T10:23:27;100475.34;;;17.54;100.00
36748;BME280;22716;51.556;5.080;2023-07-30T10:25:56;100475.06;;;17.60;100.00
36748;BME280;22716;51.556;5.080;2023-07-30T10:28:32;100475.84;;;17.62;100.00
36748;BME280;22716;51.556;5.080;2023-07-30T10:31:07;100477.84;;;17.57;100.00
36748;BME280;22716;51.556;5.080;2023-07-30T10:33:46;100476.44;;;17.69;100.00
36748;BME280;22716;51.556;5.080;2023-07-30T10:36:18;100480.91;;;17.87;100.00
36748;BME280;22716;51.556;5.080;2023-07-30T10:38:56;100475.81;;;18.01;100.00
36748;BME280;22716;51.556;5.080;2023-07-30T10:41:25;100476.16;;;18.12;100.00
36748;BME280;22716;51.556;5.080;2023-07-30T10:43:54;100485.19;;;18.27;100.00
36748;BME280;22716;51.556;5.080;2023-07-30T10:46:26;100487.81;;;18.45;100.00
36748;BME280;22716;51.556;5.080;2023-07-30T10:48:55;100481.00;;;18.59;100.00
36748;BME280;22716;51.556;5.080;2023-07-30T10:51:23;100487.34;;;18.73;100.00
36748;BME280;22716;51.556;5.080;2023-07-30T10:53:52;100483.06;;;18.88;100.00
36748;BME280;22716;51.556;5.080;2023-07-30T10:56:22;100464.91;;;18.97;100.00
36748;BME280;22716;51.556;5.080;2023-07-30T10:58:55;100476.31;;;19.17;100.00
36748;BME280;22716;51.556;5.080;2023-07-30T11:01:26;100481.44;;;19.37;100.00
36748;BME280;22716;51.556;5.080;2023-07-30T11:03:56;100481.53;;;19.52;100.00
36748;BME280;22716;51.556;5.080;2023-07-30T11:06:26;100476.91;;;19.56;100.00
36748;BME280;22716;51.556;5.080;2023-07-30T11:08:55;100495.28;;;19.61;100.00
36748;BME280;22716;51.556;5.080;2023-07-30T11:11:25;100485.59;;;19.60;100.00
36748;BME280;22716;51.556;5.080;2023-07-30T11:13:54;100486.31;;;19.46;100.00
36748;BME280;22716;51.556;5.080;2023-07-30T11:16:26;100484.16;;;19.35;100.00
36748;BME280;22716;51.556;5.080;2023-07-30T11:18:55;100500.84;;;19.39;100.00
36748;BME280;22716;51.556;5.080;2023-07-30T11:21:24;100491.31;;;19.52;100.00
36748;BME280;22716;51.556;5.080;2023-07-30T11:23:53;100491.00;;;19.74;98.91
36748;BME280;22716;51.556;5.080;2023-07-30T11:26:22;100499.97;;;19.88;98.28
36748;BME280;22716;51.556;5.080;2023-07-30T11:28:51;100494.50;;;20.07;97.34
36748;BME280;22716;51.556;5.080;2023-07-30T11:31:20;100502.59;;;20.21;96.46
36748;BME280;22716;51.556;5.080;2023-07-30T11:33:55;100503.56;;;20.36;95.96
36748;BME280;22716;51.556;5.080;2023-07-30T11:36:25;100503.47;;;20.53;94.98
36748;BME280;22716;51.556;5.080;2023-07-30T11:38:54;100497.63;;;20.46;94.03
36748;BME280;22716;51.556;5.080;2023-07-30T11:41:23;100508.78;;;20.53;95.01
36748;BME280;22716;51.556;5.080;2023-07-30T11:43:54;100508.28;;;20.46;94.33
36748;BME280;22716;51.556;5.080;2023-07-30T11:46:23;100513.59;;;20.46;94.57
36748;BME280;22716;51.556;5.080;2023-07-30T11:49:10;100515.31;;;20.47;94.37
36748;BME280;22716;51.556;5.080;2023-07-30T11:51:39;100519.19;;;20.57;92.96
36748;BME280;22716;51.556;5.080;2023-07-30T11:54:18;100506.38;;;20.80;90.71
36748;BME280;22716;51.556;5.080;2023-07-30T11:56:54;100520.63;;;20.79;89.76
36748;BME280;22716;51.556;5.080;2023-07-30T11:59:23;100523.28;;;20.79;88.52
36748;BME280;22716;51.556;5.080;2023-07-30T12:01:52;100526.81;;;20.79;89.07
36748;BME280;22716;51.556;5.080;2023-07-30T12:04:24;100526.28;;;20.73;88.81
36748;BME280;22716;51.556;5.080;2023-07-30T12:06:53;100533.34;;;20.74;88.80
36748;BME280;22716;51.556;5.080;2023-07-30T12:09:23;100537.09;;;20.69;88.26
36748;BME280;22716;51.556;5.080;2023-07-30T12:11:54;100536.34;;;20.67;89.64
36748;BME280;22716;51.556;5.080;2023-07-30T12:14:26;100526.09;;;20.91;89.67
36748;BME280;22716;51.556;5.080;2023-07-30T12:16:56;100517.97;;;21.24;88.88
36748;BME280;22716;51.556;5.080;2023-07-30T12:19:28;100523.84;;;21.45;88.21
36748;BME280;22716;51.556;5.080;2023-07-30T12:21:57;100522.59;;;21.36;87.37
36748;BME280;22716;51.556;5.080;2023-07-30T12:24:26;100537.78;;;21.34;88.56
36748;BME280;22716;51.556;5.080;2023-07-30T12:26:55;100530.91;;;21.60;87.46
36748;BME280;22716;51.556;5.080;2023-07-30T12:29:24;100527.00;;;21.79;85.28
36748;BME280;22716;51.556;5.080;2023-07-30T12:31:53;100522.47;;;22.10;84.34
36748;BME280;22716;51.556;5.080;2023-07-30T12:34:23;100527.50;;;22.14;83.63
36748;BME280;22716;51.556;5.080;2023-07-30T12:36:54;100533.72;;;22.01;83.74
36748;BME280;22716;51.556;5.080;2023-07-30T12:39:24;100545.50;;;21.83;83.23
36748;BME280;22716;51.556;5.080;2023-07-30T12:41:53;100540.03;;;21.70;82.66
36748;BME280;22716;51.556;5.080;2023-07-30T12:44:22;100534.09;;;21.95;80.81
36748;BME280;22716;51.556;5.080;2023-07-30T12:46:51;100539.34;;;21.96;79.47
36748;BME280;22716;51.556;5.080;2023-07-30T12:49:20;100538.88;;;22.04;79.23
36748;BME280;22716;51.556;5.080;2023-07-30T12:51:48;100544.09;;;22.05;78.18
36748;BME280;22716;51.556;5.080;2023-07-30T12:54:22;100544.47;;;21.99;77.83